sensor_id;sensor_type;location;lat;lon;timestamp;P1;durP1;ratioP1;P2;durP2;ratioP2
5295;SDS011;2670;42.720;23.336;2023-11-22T00:01:47;56.93;;;22.00;;
5295;SDS011;2670;42.720;23.336;2023-11-22T00:04:15;40.93;;;22.40;;
5295;SDS011;2670;42.720;23.336;2023-11-22T00:06:42;47.40;;;23.43;;
5295;SDS011;2670;42.720;23.336;2023-11-22T00:09:09;47.17;;;23.17;;
5295;SDS011;2670;42.720;23.336;2023-11-22T00:11:36;40.57;;;21.67;;
5295;SDS011;2670;42.720;23.336;2023-11-22T00:14:02;48.83;;;21.83;;
5295;SDS011;2670;42.720;23.336;2023-11-22T00:16:29;45.50;;;21.83;;
5295;SDS011;2670;42.720;23.336;2023-11-22T00:18:56;39.23;;;19.90;;
5295;SDS011;2670;42.720;23.336;2023-11-22T00:21:24;41.43;;;20.77;;
5295;SDS011;2670;42.720;23.336;2023-11-22T00:23:50;41.70;;;20.83;;
5295;SDS011;2670;42.720;23.336;2023-11-22T00:26:16;38.27;;;21.53;;
5295;SDS011;2670;42.720;23.336;2023-11-22T00:28:43;44.70;;;22.70;;
5295;SDS011;2670;42.720;23.336;2023-11-22T00:31:09;41.43;;;22.50;;
5295;SDS011;2670;42.720;23.336;2023-11-22T00:36:40;41.67;;;21.60;;
5295;SDS011;2670;42.720;23.336;2023-11-22T00:39:06;47.60;;;24.30;;
5295;SDS011;2670;42.720;23.336;2023-11-22T00:47:40;36.53;;;20.90;;
5295;SDS011;2670;42.720;23.336;2023-11-22T00:50:06;46.70;;;19.80;;
5295;SDS011;2670;42.720;23.336;2023-11-22T00:52:34;42.83;;;22.20;;
5295;SDS011;2670;42.720;23.336;2023-11-22T00:55:01;34.63;;;20.60;;
5295;SDS011;2670;42.720;23.336;2023-11-22T00:57:27;35.97;;;19.80;;
5295;SDS011;2670;42.720;23.336;2023-11-22T00:59:55;40.93;;;22.07;;
5295;SDS011;2670;42.720;23.336;2023-11-22T01:02:21;60.03;;;23.57;;
5295;SDS011;2670;42.720;23.336;2023-11-22T01:04:48;45.90;;;25.70;;
5295;SDS011;2670;42.720;23.336;2023-11-22T01:07:14;44.23;;;24.67;;
5295;SDS011;2670;42.720;23.336;2023-11-22T01:09:42;48.90;;;24.67;;
5295;SDS011;2670;42.720;23.336;2023-11-22T01:12:09;46.20;;;25.93;;
5295;SDS011;2670;42.720;23.336;2023-11-22T01:14:37;44.67;;;24.97;;
5295;SDS011;2670;42.720;23.336;2023-11-22T01:17:04;48.07;;;25.57;;
5295;SDS011;2670;42.720;23.336;2023-11-22T01:19:30;38.80;;;21.23;;
5295;SDS011;2670;42.720;23.336;2023-11-22T01:21:57;37.87;;;20.47;;
5295;SDS011;2670;42.720;23.336;2023-11-22T01:24:23;49.53;;;22.17;;
5295;SDS011;2670;42.720;23.336;2023-11-22T01:26:52;41.30;;;21.60;;
5295;SDS011;2670;42.720;23.336;2023-11-22T01:29:19;36.80;;;21.20;;
5295;SDS011;2670;42.720;23.336;2023-11-22T01:31:45;38.67;;;22.17;;
5295;SDS011;2670;42.720;23.336;2023-11-22T01:34:12;47.10;;;24.00;;
5295;SDS011;2670;42.720;23.336;2023-11-22T01:36:41;44.07;;;24.23;;
5295;SDS011;2670;42.720;23.336;2023-11-22T01:39:08;50.80;;;25.13;;
5295;SDS011;2670;42.720;23.336;2023-11-22T01:41:35;55.30;;;26.20;;
5295;SDS011;2670;42.720;23.336;2023-11-22T01:44:03;57.43;;;25.67;;
5295;SDS011;2670;42.720;23.336;2023-11-22T01:46:29;46.50;;;26.37;;
5295;SDS011;2670;42.720;23.336;2023-11-22T01:48:55;45.13;;;23.77;;
5295;SDS011;2670;42.720;23.336;2023-11-22T01:51:22;42.53;;;21.90;;
5295;SDS011;2670;42.720;23.336;2023-11-22T01:53:49;47.97;;;24.30;;
5295;SDS011;2670;42.720;23.336;2023-11-22T01:56:18;45.37;;;22.87;;
5295;SDS011;2670;42.720;23.336;2023-11-22T01:58:45;51.50;;;24.67;;
5295;SDS011;2670;42.720;23.336;2023-11-22T02:01:13;55.50;;;25.80;;
5295;SDS011;2670;42.720;23.336;2023-11-22T02:03:40;52.50;;;25.37;;
5295;SDS011;2670;42.720;23.336;2023-11-22T02:06:07;50.07;;;24.67;;
5295;SDS011;2670;42.720;23.336;2023-11-22T02:08:34;48.23;;;23.33;;
5295;SDS011;2670;42.720;23.336;2023-11-22T02:11:01;51.30;;;24.27;;
5295;SDS011;2670;42.720;23.336;2023-11-22T02:13:28;43.57;;;23.57;;
5295;SDS011;2670;42.720;23.336;2023-11-22T02:15:55;46.93;;;22.87;;
5295;SDS011;2670;42.720;23.336;2023-11-22T02:18:25;38.77;;;20.37;;
5295;SDS011;2670;42.720;23.336;2023-11-22T02:20:52;35.50;;;19.10;;
5295;SDS011;2670;42.720;23.336;2023-11-22T02:23:19;35.57;;;18.87;;
5295;SDS011;2670;42.720;23.336;2023-11-22T02:25:47;36.30;;;20.73;;
5295;SDS011;2670;42.720;23.336;2023-11-22T02:28:14;30.80;;;18.57;;
5295;SDS011;2670;42.720;23.336;2023-11-22T02:30:41;34.80;;;18.20;;
5295;SDS011;2670;42.720;23.336;2023-11-22T02:33:08;38.53;;;18.23;;
5295;SDS011;2670;42.720;23.336;2023-11-22T02:35:34;29.10;;;17.93;;
5295;SDS011;2670;42.720;23.336;2023-11-22T02:38:01;37.80;;;19.50;;
5295;SDS011;2670;42.720;23.336;2023-11-22T02:40:29;32.10;;;19.10;;
5295;SDS011;2670;42.720;23.336;2023-11-22T02:42:55;33.03;;;18.60;;
5295;SDS011;2670;42.720;23.336;2023-11-22T02:45:25;34.90;;;19.80;;
5295;SDS011;2670;42.720;23.336;2023-11-22T02:47:51;31.53;;;18.33;;
5295;SDS011;2670;42.720;23.336;2023-11-22T02:50:18;39.03;;;19.73;;
5295;SDS011;2670;42.720;23.336;2023-11-22T02:52:44;32.53;;;18.43;;
5295;SDS011;2670;42.720;23.336;2023-11-22T02:55:11;37.00;;;18.07;;
5295;SDS011;2670;42.720;23.336;2023-11-22T02:57:39;36.23;;;19.60;;
5295;SDS011;2670;42.720;23.336;2023-11-22T03:00:06;33.63;;;18.30;;
5295;SDS011;2670;42.720;23.336;2023-11-22T03:02:33;33.37;;;17.77;;
5295;SDS011;2670;42.720;23.336;2023-11-22T03:04:59;37.50;;;18.90;;
5295;SDS011;2670;42.720;23.336;2023-11-22T03:07:26;28.73;;;16.87;;
5295;SDS011;2670;42.720;23.336;2023-11-22T03:09:52;31.00;;;18.23;;
5295;SDS011;2670;42.720;23.336;2023-11-22T03:12:19;30.80;;;17.67;;
5295;SDS011;2670;42.720;23.336;2023-11-22T03:14:47;29.20;;;17.87;;
5295;SDS011;2670;42.720;23.336;2023-11-22T03:17:14;28.83;;;16.37;;
5295;SDS011;2670;42.720;23.336;2023-11-22T03:19:40;36.27;;;17.83;;
5295;SDS011;2670;42.720;23.336;2023-11-22T03:22:07;30.60;;;16.17;;
5295;SDS011;2670;42.720;23.336;2023-11-22T03:24:34;34.60;;;17.63;;
5295;SDS011;2670;42.720;23.336;2023-11-22T03:27:02;38.17;;;19.07;;
5295;SDS011;2670;42.720;23.336;2023-11-22T03:29:28;33.57;;;17.87;;
5295;SDS011;2670;42.720;23.336;2023-11-22T03:31:56;29.00;;;15.80;;
5295;SDS011;2670;42.720;23.336;2023-11-22T03:34:23;32.50;;;18.13;;
5295;SDS011;2670;42.720;23.336;2023-11-22T03:36:48;29.43;;;15.37;;
5295;SDS011;2670;42.720;23.336;2023-11-22T03:39:15;36.47;;;17.37;;
5295;SDS011;2670;42.720;23.336;2023-11-22T03:41:42;30.63;;;16.50;;
5295;SDS011;2670;42.720;23.336;2023-11-22T03:44:08;27.63;;;16.10;;
5295;SDS011;2670;42.720;23.336;2023-11-22T03:46:35;33.83;;;16.73;;
5295;SDS011;2670;42.720;23.336;2023-11-22T03:49:03;32.03;;;17.13;;
5295;SDS011;2670;42.720;23.336;2023-11-22T03:51:31;26.80;;;15.43;;
5295;SDS011;2670;42.720;23.336;2023-11-22T03:53:58;29.17;;;15.83;;
5295;SDS011;2670;42.720;23.336;2023-11-22T03:56:24;37.10;;;16.63;;
5295;SDS011;2670;42.720;23.336;2023-11-22T03:58:51;26.37;;;15.00;;
5295;SDS011;2670;42.720;23.336;2023-11-22T04:01:17;28.93;;;15.97;;
5295;SDS011;2670;42.720;23.336;2023-11-22T04:03:45;26.50;;;15.67;;
5295;SDS011;2670;42.720;23.336;2023-11-22T04:06:13;27.87;;;16.33;;
5295;SDS011;2670;42.720;23.336;2023-11-22T04:08:40;28.40;;;16.47;;
5295;SDS011;2670;42.720;23.336;2023-11-22T04:11:09;30.80;;;17.43;;
5295;SDS011;2670;42.720;23.336;2023-11-22T04:13:35;33.73;;;16.83;;
5295;SDS011;2670;42.720;23.336;2023-11-22T04:16:02;40.20;;;20.67;;
5295;SDS011;2670;42.720;23.336;2023-11-22T04:18:28;43.00;;;20.37;;
5295;SDS011;2670;42.720;23.336;2023-11-22T04:20:55;40.53;;;20.40;;
5295;SDS011;2670;42.720;23.336;2023-11-22T04:23:24;47.77;;;24.70;;
5295;SDS011;2670;42.720;23.336;2023-11-22T04:25:51;48.77;;;25.10;;
5295;SDS011;2670;42.720;23.336;2023-11-22T04:28:17;46.97;;;22.90;;
5295;SDS011;2670;42.720;23.336;2023-11-22T04:30:44;42.27;;;21.27;;
5295;SDS011;2670;42.720;23.336;2023-11-22T04:33:10;42.53;;;21.13;;
5295;SDS011;2670;42.720;23.336;2023-11-22T04:35:37;34.10;;;20.80;;
5295;SDS011;2670;42.720;23.336;2023-11-22T04:38:04;40.23;;;21.17;;
5295;SDS011;2670;42.720;23.336;2023-11-22T04:40:32;40.07;;;22.97;;
5295;SDS011;2670;42.720;23.336;2023-11-22T04:42:59;41.63;;;24.27;;
5295;SDS011;2670;42.720;23.336;2023-11-22T04:45:25;56.93;;;30.33;;
5295;SDS011;2670;42.720;23.336;2023-11-22T04:47:52;48.83;;;27.07;;
5295;SDS011;2670;42.720;23.336;2023-11-22T04:50:18;41.90;;;24.43;;
5295;SDS011;2670;42.720;23.336;2023-11-22T04:52:45;49.80;;;25.30;;
5295;SDS011;2670;42.720;23.336;2023-11-22T04:55:11;50.60;;;23.73;;
5295;SDS011;2670;42.720;23.336;2023-11-22T04:57:39;44.73;;;25.60;;
5295;SDS011;2670;42.720;23.336;2023-11-22T05:00:06;47.73;;;25.30;;
5295;SDS011;2670;42.720;23.336;2023-11-22T05:02:33;50.83;;;25.30;;
5295;SDS011;2670;42.720;23.336;2023-11-22T05:04:59;43.03;;;25.20;;
5295;SDS011;2670;42.720;23.336;2023-11-22T05:07:26;41.47;;;21.77;;
5295;SDS011;2670;42.720;23.336;2023-11-22T05:09:52;41.10;;;21.87;;
5295;SDS011;2670;42.720;23.336;2023-11-22T05:12:19;41.87;;;22.73;;
5295;SDS011;2670;42.720;23.336;2023-11-22T05:14:47;45.90;;;22.83;;
5295;SDS011;2670;42.720;23.336;2023-11-22T05:17:14;50.17;;;24.00;;
5295;SDS011;2670;42.720;23.336;2023-11-22T05:19:41;41.73;;;22.93;;
5295;SDS011;2670;42.720;23.336;2023-11-22T05:22:07;59.97;;;28.97;;
5295;SDS011;2670;42.720;23.336;2023-11-22T05:24:34;69.17;;;28.53;;
5295;SDS011;2670;42.720;23.336;2023-11-22T05:27:01;61.10;;;30.70;;
5295;SDS011;2670;42.720;23.336;2023-11-22T05:29:28;58.10;;;27.73;;
5295;SDS011;2670;42.720;23.336;2023-11-22T05:31:56;43.90;;;25.50;;
5295;SDS011;2670;42.720;23.336;2023-11-22T05:34:22;49.43;;;26.10;;
5295;SDS011;2670;42.720;23.336;2023-11-22T05:36:49;47.97;;;25.20;;
5295;SDS011;2670;42.720;23.336;2023-11-22T05:39:15;52.27;;;27.80;;
5295;SDS011;2670;42.720;23.336;2023-11-22T05:41:42;50.83;;;27.40;;
5295;SDS011;2670;42.720;23.336;2023-11-22T05:44:09;68.17;;;32.60;;
5295;SDS011;2670;42.720;23.336;2023-11-22T05:46:35;62.70;;;34.63;;
5295;SDS011;2670;42.720;23.336;2023-11-22T05:49:05;66.30;;;35.53;;
5295;SDS011;2670;42.720;23.336;2023-11-22T05:51:31;60.53;;;33.43;;
5295;SDS011;2670;42.720;23.336;2023-11-22T05:53:59;64.63;;;32.70;;
5295;SDS011;2670;42.720;23.336;2023-11-22T05:56:25;54.43;;;32.10;;
5295;SDS011;2670;42.720;23.336;2023-11-22T05:58:52;53.30;;;27.40;;
5295;SDS011;2670;42.720;23.336;2023-11-22T06:01:18;48.97;;;26.13;;
5295;SDS011;2670;42.720;23.336;2023-11-22T06:03:45;55.63;;;28.93;;
5295;SDS011;2670;42.720;23.336;2023-11-22T06:06:13;44.80;;;26.33;;
5295;SDS011;2670;42.720;23.336;2023-11-22T06:08:40;53.30;;;28.57;;
5295;SDS011;2670;42.720;23.336;2023-11-22T06:11:06;45.80;;;26.27;;
5295;SDS011;2670;42.720;23.336;2023-11-22T06:13:33;51.47;;;27.10;;
5295;SDS011;2670;42.720;23.336;2023-11-22T06:15:59;49.80;;;28.03;;
5295;SDS011;2670;42.720;23.336;2023-11-22T06:18:26;46.47;;;26.20;;
5295;SDS011;2670;42.720;23.336;2023-11-22T06:20:55;62.70;;;30.00;;
5295;SDS011;2670;42.720;23.336;2023-11-22T06:23:22;57.57;;;29.80;;
5295;SDS011;2670;42.720;23.336;2023-11-22T06:25:49;42.97;;;25.90;;
5295;SDS011;2670;42.720;23.336;2023-11-22T06:28:15;59.83;;;26.20;;
5295;SDS011;2670;42.720;23.336;2023-11-22T06:30:43;48.20;;;28.10;;
5295;SDS011;2670;42.720;23.336;2023-11-22T06:33:09;51.47;;;28.10;;
5295;SDS011;2670;42.720;23.336;2023-11-22T06:35:36;46.97;;;26.83;;
5295;SDS011;2670;42.720;23.336;2023-11-22T06:38:02;53.33;;;29.23;;
5295;SDS011;2670;42.720;23.336;2023-11-22T06:40:30;46.17;;;26.27;;
5295;SDS011;2670;42.720;23.336;2023-11-22T06:42:56;42.43;;;24.60;;
5295;SDS011;2670;42.720;23.336;2023-11-22T06:45:23;39.03;;;22.93;;
5295;SDS011;2670;42.720;23.336;2023-11-22T06:47:49;52.00;;;25.60;;
5295;SDS011;2670;42.720;23.336;2023-11-22T06:50:16;50.20;;;27.37;;
5295;SDS011;2670;42.720;23.336;2023-11-22T06:52:42;39.63;;;20.30;;
5295;SDS011;2670;42.720;23.336;2023-11-22T06:55:10;31.73;;;18.90;;
5295;SDS011;2670;42.720;23.336;2023-11-22T06:57:38;32.03;;;20.30;;
5295;SDS011;2670;42.720;23.336;2023-11-22T07:00:05;35.20;;;19.40;;
5295;SDS011;2670;42.720;23.336;2023-11-22T07:02:34;36.77;;;21.73;;
5295;SDS011;2670;42.720;23.336;2023-11-22T07:05:00;31.40;;;20.00;;
5295;SDS011;2670;42.720;23.336;2023-11-22T07:07:28;56.33;;;26.70;;
5295;SDS011;2670;42.720;23.336;2023-11-22T07:09:54;52.83;;;25.47;;
5295;SDS011;2670;42.720;23.336;2023-11-22T07:12:21;62.17;;;33.37;;
5295;SDS011;2670;42.720;23.336;2023-11-22T07:14:49;43.43;;;25.20;;
5295;SDS011;2670;42.720;23.336;2023-11-22T07:17:16;60.47;;;35.87;;
5295;SDS011;2670;42.720;23.336;2023-11-22T07:19:43;54.40;;;29.97;;
5295;SDS011;2670;42.720;23.336;2023-11-22T07:22:12;53.53;;;29.57;;
5295;SDS011;2670;42.720;23.336;2023-11-22T07:24:42;63.00;;;33.13;;
5295;SDS011;2670;42.720;23.336;2023-11-22T07:27:09;60.37;;;30.27;;
5295;SDS011;2670;42.720;23.336;2023-11-22T07:29:37;67.10;;;32.93;;
5295;SDS011;2670;42.720;23.336;2023-11-22T07:32:05;54.90;;;27.60;;
5295;SDS011;2670;42.720;23.336;2023-11-22T07:34:32;56.83;;;28.30;;
5295;SDS011;2670;42.720;23.336;2023-11-22T07:36:58;58.10;;;31.97;;
5295;SDS011;2670;42.720;23.336;2023-11-22T07:39:25;48.00;;;28.10;;
5295;SDS011;2670;42.720;23.336;2023-11-22T07:41:52;50.20;;;25.10;;
5295;SDS011;2670;42.720;23.336;2023-11-22T07:44:20;39.07;;;24.90;;
5295;SDS011;2670;42.720;23.336;2023-11-22T07:46:46;48.37;;;22.87;;
5295;SDS011;2670;42.720;23.336;2023-11-22T07:49:14;37.50;;;22.70;;
5295;SDS011;2670;42.720;23.336;2023-11-22T07:51:40;43.10;;;22.63;;
5295;SDS011;2670;42.720;23.336;2023-11-22T07:54:07;43.80;;;24.00;;
5295;SDS011;2670;42.720;23.336;2023-11-22T07:56:34;45.03;;;27.70;;
5295;SDS011;2670;42.720;23.336;2023-11-22T07:59:02;47.20;;;25.37;;
5295;SDS011;2670;42.720;23.336;2023-11-22T08:01:29;62.57;;;34.00;;
5295;SDS011;2670;42.720;23.336;2023-11-22T08:03:56;63.80;;;40.77;;
5295;SDS011;2670;42.720;23.336;2023-11-22T08:06:24;73.27;;;41.23;;
5295;SDS011;2670;42.720;23.336;2023-11-22T08:08:52;72.30;;;35.83;;
5295;SDS011;2670;42.720;23.336;2023-11-22T08:11:18;62.50;;;31.97;;
5295;SDS011;2670;42.720;23.336;2023-11-22T08:13:46;53.80;;;32.03;;
5295;SDS011;2670;42.720;23.336;2023-11-22T08:16:13;67.63;;;31.17;;
5295;SDS011;2670;42.720;23.336;2023-11-22T08:18:39;64.93;;;27.80;;
5295;SDS011;2670;42.720;23.336;2023-11-22T08:21:07;62.87;;;27.63;;
5295;SDS011;2670;42.720;23.336;2023-11-22T08:23:35;35.93;;;19.20;;
5295;SDS011;2670;42.720;23.336;2023-11-22T08:26:02;34.77;;;19.60;;
5295;SDS011;2670;42.720;23.336;2023-11-22T08:28:29;36.07;;;19.17;;
5295;SDS011;2670;42.720;23.336;2023-11-22T08:30:56;30.67;;;17.07;;
5295;SDS011;2670;42.720;23.336;2023-11-22T08:33:22;28.40;;;17.73;;
5295;SDS011;2670;42.720;23.336;2023-11-22T08:35:49;38.33;;;18.30;;
5295;SDS011;2670;42.720;23.336;2023-11-22T08:38:23;30.50;;;17.50;;
5295;SDS011;2670;42.720;23.336;2023-11-22T08:40:50;28.67;;;15.90;;
5295;SDS011;2670;42.720;23.336;2023-11-22T08:43:16;27.97;;;15.43;;
5295;SDS011;2670;42.720;23.336;2023-11-22T08:45:48;23.97;;;13.10;;
5295;SDS011;2670;42.720;23.336;2023-11-22T08:48:14;22.30;;;13.60;;
5295;SDS011;2670;42.720;23.336;2023-11-22T08:50:42;29.07;;;15.30;;
5295;SDS011;2670;42.720;23.336;2023-11-22T08:53:09;28.40;;;14.87;;
5295;SDS011;2670;42.720;23.336;2023-11-22T08:55:36;30.40;;;16.00;;
5295;SDS011;2670;42.720;23.336;2023-11-22T08:58:04;49.60;;;17.80;;
5295;SDS011;2670;42.720;23.336;2023-11-22T09:00:33;42.87;;;22.40;;
5295;SDS011;2670;42.720;23.336;2023-11-22T09:03:00;40.20;;;22.77;;
5295;SDS011;2670;42.720;23.336;2023-11-22T09:05:28;41.30;;;22.50;;
5295;SDS011;2670;42.720;23.336;2023-11-22T09:07:54;41.23;;;22.43;;
5295;SDS011;2670;42.720;23.336;2023-11-22T09:10:23;53.83;;;27.50;;
5295;SDS011;2670;42.720;23.336;2023-11-22T09:12:49;49.73;;;26.73;;
5295;SDS011;2670;42.720;23.336;2023-11-22T09:15:18;44.37;;;25.93;;
5295;SDS011;2670;42.720;23.336;2023-11-22T09:17:51;46.93;;;26.47;;
5295;SDS011;2670;42.720;23.336;2023-11-22T09:20:19;31.83;;;17.57;;
5295;SDS011;2670;42.720;23.336;2023-11-22T09:22:46;36.00;;;18.63;;
5295;SDS011;2670;42.720;23.336;2023-11-22T09:25:14;66.53;;;29.83;;
5295;SDS011;2670;42.720;23.336;2023-11-22T09:27:41;49.13;;;25.40;;
5295;SDS011;2670;42.720;23.336;2023-11-22T09:30:11;56.07;;;29.40;;
5295;SDS011;2670;42.720;23.336;2023-11-22T09:32:44;50.83;;;24.73;;
5295;SDS011;2670;42.720;23.336;2023-11-22T09:35:12;54.23;;;29.23;;
5295;SDS011;2670;42.720;23.336;2023-11-22T09:37:39;61.57;;;29.60;;
5295;SDS011;2670;42.720;23.336;2023-11-22T09:40:07;68.20;;;29.83;;
5295;SDS011;2670;42.720;23.336;2023-11-22T09:42:34;65.17;;;29.40;;
5295;SDS011;2670;42.720;23.336;2023-11-22T09:45:02;54.30;;;28.50;;
5295;SDS011;2670;42.720;23.336;2023-11-22T09:47:29;53.87;;;29.83;;
5295;SDS011;2670;42.720;23.336;2023-11-22T09:49:59;72.33;;;33.00;;
5295;SDS011;2670;42.720;23.336;2023-11-22T09:52:30;57.30;;;30.50;;
5295;SDS011;2670;42.720;23.336;2023-11-22T09:54:59;57.57;;;30.83;;
5295;SDS011;2670;42.720;23.336;2023-11-22T09:57:26;64.70;;;34.70;;
5295;SDS011;2670;42.720;23.336;2023-11-22T09:59:55;64.33;;;31.80;;
5295;SDS011;2670;42.720;23.336;2023-11-22T10:02:22;80.50;;;49.70;;
5295;SDS011;2670;42.720;23.336;2023-11-22T10:04:52;80.80;;;35.77;;
5295;SDS011;2670;42.720;23.336;2023-11-22T10:07:19;59.77;;;29.47;;
5295;SDS011;2670;42.720;23.336;2023-11-22T10:09:46;39.87;;;23.93;;
5295;SDS011;2670;42.720;23.336;2023-11-22T10:12:13;48.77;;;25.57;;
5295;SDS011;2670;42.720;23.336;2023-11-22T10:14:43;48.33;;;24.70;;
5295;SDS011;2670;42.720;23.336;2023-11-22T10:17:09;33.53;;;19.37;;
5295;SDS011;2670;42.720;23.336;2023-11-22T10:19:36;37.83;;;19.57;;
5295;SDS011;2670;42.720;23.336;2023-11-22T10:22:03;30.87;;;18.60;;
5295;SDS011;2670;42.720;23.336;2023-11-22T10:24:31;30.87;;;13.07;;
5295;SDS011;2670;42.720;23.336;2023-11-22T10:26:59;19.60;;;11.50;;
5295;SDS011;2670;42.720;23.336;2023-11-22T10:29:27;17.03;;;9.83;;
5295;SDS011;2670;42.720;23.336;2023-11-22T10:31:55;20.83;;;12.20;;
5295;SDS011;2670;42.720;23.336;2023-11-22T10:34:23;19.47;;;11.43;;
5295;SDS011;2670;42.720;23.336;2023-11-22T10:36:50;23.30;;;12.37;;
5295;SDS011;2670;42.720;23.336;2023-11-22T10:39:18;28.83;;;14.10;;
5295;SDS011;2670;42.720;23.336;2023-11-22T10:41:46;28.70;;;15.40;;
5295;SDS011;2670;42.720;23.336;2023-11-22T10:44:13;26.37;;;15.50;;
5295;SDS011;2670;42.720;23.336;2023-11-22T10:46:42;36.67;;;19.13;;
5295;SDS011;2670;42.720;23.336;2023-11-22T10:49:09;41.90;;;20.33;;
5295;SDS011;2670;42.720;23.336;2023-11-22T10:51:35;35.57;;;19.80;;
5295;SDS011;2670;42.720;23.336;2023-11-22T10:54:05;40.00;;;22.60;;
5295;SDS011;2670;42.720;23.336;2023-11-22T10:56:34;35.60;;;20.97;;
5295;SDS011;2670;42.720;23.336;2023-11-22T10:59:04;36.87;;;20.37;;
5295;SDS011;2670;42.720;23.336;2023-11-22T11:01:33;36.60;;;21.10;;
5295;SDS011;2670;42.720;23.336;2023-11-22T11:04:00;34.50;;;19.70;;
5295;SDS011;2670;42.720;23.336;2023-11-22T11:06:31;34.73;;;20.80;;
5295;SDS011;2670;42.720;23.336;2023-11-22T11:08:59;41.00;;;21.03;;
5295;SDS011;2670;42.720;23.336;2023-11-22T11:11:26;40.90;;;21.97;;
5295;SDS011;2670;42.720;23.336;2023-11-22T11:13:53;36.77;;;22.10;;
5295;SDS011;2670;42.720;23.336;2023-11-22T11:16:21;40.90;;;22.27;;
5295;SDS011;2670;42.720;23.336;2023-11-22T11:18:48;57.07;;;26.27;;
5295;SDS011;2670;42.720;23.336;2023-11-22T11:21:15;55.20;;;33.10;;
5295;SDS011;2670;42.720;23.336;2023-11-22T11:23:42;65.77;;;29.10;;
5295;SDS011;2670;42.720;23.336;2023-11-22T11:26:13;47.90;;;25.60;;
5295;SDS011;2670;42.720;23.336;2023-11-22T11:28:42;47.07;;;24.23;;
5295;SDS011;2670;42.720;23.336;2023-11-22T11:31:08;45.70;;;23.60;;
5295;SDS011;2670;42.720;23.336;2023-11-22T11:36:22;47.17;;;24.57;;
5295;SDS011;2670;42.720;23.336;2023-11-22T11:38:50;37.17;;;20.37;;
5295;SDS011;2670;42.720;23.336;2023-11-22T11:41:17;39.83;;;18.87;;
5295;SDS011;2670;42.720;23.336;2023-11-22T11:43:44;30.67;;;17.33;;
5295;SDS011;2670;42.720;23.336;2023-11-22T11:46:11;38.53;;;15.90;;
5295;SDS011;2670;42.720;23.336;2023-11-22T11:48:37;28.23;;;15.43;;
5295;SDS011;2670;42.720;23.336;2023-11-22T11:51:04;25.13;;;15.30;;
5295;SDS011;2670;42.720;23.336;2023-11-22T11:53:33;28.50;;;16.43;;
5295;SDS011;2670;42.720;23.336;2023-11-22T11:56:01;37.47;;;18.10;;
5295;SDS011;2670;42.720;23.336;2023-11-22T11:58:28;32.70;;;16.50;;
5295;SDS011;2670;42.720;23.336;2023-11-22T12:00:54;27.47;;;15.20;;
5295;SDS011;2670;42.720;23.336;2023-11-22T12:03:21;34.63;;;17.70;;
5295;SDS011;2670;42.720;23.336;2023-11-22T12:05:49;30.90;;;16.50;;
5295;SDS011;2670;42.720;23.336;2023-11-22T12:08:15;43.60;;;20.23;;
5295;SDS011;2670;42.720;23.336;2023-11-22T12:10:43;40.13;;;19.33;;
5295;SDS011;2670;42.720;23.336;2023-11-22T12:13:13;70.07;;;33.43;;
5295;SDS011;2670;42.720;23.336;2023-11-22T12:15:40;178.97;;;88.97;;
5295;SDS011;2670;42.720;23.336;2023-11-22T12:18:07;40.97;;;21.30;;
5295;SDS011;2670;42.720;23.336;2023-11-22T12:20:34;36.77;;;21.67;;
5295;SDS011;2670;42.720;23.336;2023-11-22T12:23:01;29.30;;;14.80;;
5295;SDS011;2670;42.720;23.336;2023-11-22T12:25:28;29.60;;;15.93;;
5295;SDS011;2670;42.720;23.336;2023-11-22T12:27:57;27.13;;;16.93;;
5295;SDS011;2670;42.720;23.336;2023-11-22T12:30:32;26.47;;;14.00;;
5295;SDS011;2670;42.720;23.336;2023-11-22T12:33:02;22.20;;;11.00;;
5295;SDS011;2670;42.720;23.336;2023-11-22T12:35:29;23.13;;;14.20;;
5295;SDS011;2670;42.720;23.336;2023-11-22T12:37:56;25.80;;;16.10;;
5295;SDS011;2670;42.720;23.336;2023-11-22T12:40:24;23.63;;;16.13;;
5295;SDS011;2670;42.720;23.336;2023-11-22T12:42:53;26.50;;;16.20;;
5295;SDS011;2670;42.720;23.336;2023-11-22T12:45:22;34.27;;;13.90;;
5295;SDS011;2670;42.720;23.336;2023-11-22T12:47:49;33.03;;;19.00;;
5295;SDS011;2670;42.720;23.336;2023-11-22T12:50:34;29.43;;;18.10;;
5295;SDS011;2670;42.720;23.336;2023-11-22T12:53:09;23.37;;;15.07;;
5295;SDS011;2670;42.720;23.336;2023-11-22T12:55:37;26.17;;;13.70;;
5295;SDS011;2670;42.720;23.336;2023-11-22T12:58:03;19.30;;;12.57;;
5295;SDS011;2670;42.720;23.336;2023-11-22T13:00:31;25.87;;;11.80;;
5295;SDS011;2670;42.720;23.336;2023-11-22T13:02:58;28.23;;;13.30;;
5295;SDS011;2670;42.720;23.336;2023-11-22T13:05:25;29.20;;;13.90;;
5295;SDS011;2670;42.720;23.336;2023-11-22T13:07:51;19.70;;;10.97;;
5295;SDS011;2670;42.720;23.336;2023-11-22T13:10:19;21.03;;;12.10;;
5295;SDS011;2670;42.720;23.336;2023-11-22T13:12:50;29.40;;;15.43;;
5295;SDS011;2670;42.720;23.336;2023-11-22T13:15:16;29.50;;;16.00;;
5295;SDS011;2670;42.720;23.336;2023-11-22T13:17:44;33.03;;;12.80;;
5295;SDS011;2670;42.720;23.336;2023-11-22T13:20:11;21.10;;;12.43;;
5295;SDS011;2670;42.720;23.336;2023-11-22T13:22:39;20.53;;;12.67;;
5295;SDS011;2670;42.720;23.336;2023-11-22T13:25:07;13.37;;;8.13;;
5295;SDS011;2670;42.720;23.336;2023-11-22T13:27:35;17.10;;;9.80;;
5295;SDS011;2670;42.720;23.336;2023-11-22T13:30:02;15.97;;;11.47;;
5295;SDS011;2670;42.720;23.336;2023-11-22T13:32:29;18.20;;;10.60;;
5295;SDS011;2670;42.720;23.336;2023-11-22T13:34:57;16.83;;;9.07;;
5295;SDS011;2670;42.720;23.336;2023-11-22T13:37:24;13.07;;;7.30;;
5295;SDS011;2670;42.720;23.336;2023-11-22T13:39:50;16.50;;;8.73;;
5295;SDS011;2670;42.720;23.336;2023-11-22T13:42:17;16.27;;;9.30;;
5295;SDS011;2670;42.720;23.336;2023-11-22T13:44:43;15.77;;;10.00;;
5295;SDS011;2670;42.720;23.336;2023-11-22T13:47:10;16.13;;;8.60;;
5295;SDS011;2670;42.720;23.336;2023-11-22T13:49:36;18.00;;;9.17;;
5295;SDS011;2670;42.720;23.336;2023-11-22T13:52:04;16.73;;;8.23;;
5295;SDS011;2670;42.720;23.336;2023-11-22T13:54:31;20.80;;;9.23;;
5295;SDS011;2670;42.720;23.336;2023-11-22T13:57:00;14.53;;;8.80;;
5295;SDS011;2670;42.720;23.336;2023-11-22T13:59:26;41.13;;;10.77;;
5295;SDS011;2670;42.720;23.336;2023-11-22T14:01:53;21.47;;;13.60;;
5295;SDS011;2670;42.720;23.336;2023-11-22T14:04:20;22.80;;;12.80;;
5295;SDS011;2670;42.720;23.336;2023-11-22T14:06:48;28.50;;;14.93;;
5295;SDS011;2670;42.720;23.336;2023-11-22T14:09:15;14.73;;;9.60;;
5295;SDS011;2670;42.720;23.336;2023-11-22T14:11:44;21.17;;;11.90;;
5295;SDS011;2670;42.720;23.336;2023-11-22T14:14:11;16.27;;;9.17;;
5295;SDS011;2670;42.720;23.336;2023-11-22T14:16:37;17.07;;;8.17;;
5295;SDS011;2670;42.720;23.336;2023-11-22T14:19:09;14.93;;;9.27;;
5295;SDS011;2670;42.720;23.336;2023-11-22T14:21:35;13.27;;;8.17;;
5295;SDS011;2670;42.720;23.336;2023-11-22T14:24:02;18.60;;;9.13;;
5295;SDS011;2670;42.720;23.336;2023-11-22T14:26:30;17.03;;;9.90;;
5295;SDS011;2670;42.720;23.336;2023-11-22T14:28:57;16.00;;;10.47;;
5295;SDS011;2670;42.720;23.336;2023-11-22T14:31:23;19.83;;;11.00;;
5295;SDS011;2670;42.720;23.336;2023-11-22T14:33:50;25.33;;;14.57;;
5295;SDS011;2670;42.720;23.336;2023-11-22T14:36:16;26.07;;;13.40;;
5295;SDS011;2670;42.720;23.336;2023-11-22T14:38:43;26.67;;;14.70;;
5295;SDS011;2670;42.720;23.336;2023-11-22T14:41:09;47.17;;;22.80;;
5295;SDS011;2670;42.720;23.336;2023-11-22T14:43:39;33.33;;;18.40;;
5295;SDS011;2670;42.720;23.336;2023-11-22T14:46:05;37.67;;;19.97;;
5295;SDS011;2670;42.720;23.336;2023-11-22T14:48:32;44.13;;;21.13;;